sensor_id;sensor_type;location;lat;lon;timestamp;pressure;altitude;pressure_sealevel;temperature;humidity
63715;BME280;49858;48.956;9.076;2023-01-23T00:01:28;99993.09;;;3.69;100.00
63715;BME280;49858;48.956;9.076;2023-01-23T00:03:56;99992.88;;;3.55;100.00
63715;BME280;49858;48.956;9.076;2023-01-23T00:06:24;99986.22;;;2.96;100.00
63715;BME280;49858;48.956;9.076;2023-01-23T00:08:53;99984.81;;;3.19;100.00
63715;BME280;49858;48.956;9.076;2023-01-23T00:11:23;99987.63;;;2.89;100.00
63715;BME280;49858;48.956;9.076;2023-01-23T00:13:53;99988.94;;;3.12;100.00
63715;BME280;49858;48.956;9.076;2023-01-23T00:16:22;99978.91;;;2.97;100.00
63715;BME280;49858;48.956;9.076;2023-01-23T00:18:51;99974.03;;;2.84;100.00
63715;BME280;49858;48.956;9.076;2023-01-23T00:21:21;99979.22;;;2.75;100.00
63715;BME280;49858;48.956;9.076;2023-01-23T00:23:51;99975.03;;;1.81;100.00
63715;BME280;49858;48.956;9.076;2023-01-23T00:26:22;99987.53;;;1.82;100.00
63715;BME280;49858;48.956;9.076;2023-01-23T00:28:50;99978.66;;;2.37;100.00
63715;BME280;49858;48.956;9.076;2023-01-23T00:31:21;99979.47;;;2.58;100.00
63715;BME280;49858;48.956;9.076;2023-01-23T00:33:53;99969.09;;;3.16;100.00
63715;BME280;49858;48.956;9.076;2023-01-23T00:36:22;99974.31;;;2.51;100.00
63715;BME280;49858;48.956;9.076;2023-01-23T00:38:53;99973.50;;;2.61;100.00
63715;BME280;49858;48.956;9.076;2023-01-23T00:41:20;99978.09;;;2.20;100.00
63715;BME280;49858;48.956;9.076;2023-01-23T00:43:48;99969.44;;;2.48;100.00
63715;BME280;49858;48.956;9.076;2023-01-23T00:46:17;99979.16;;;1.98;100.00
63715;BME280;49858;48.956;9.076;2023-01-23T00:48:47;99973.97;;;1.87;100.00
63715;BME280;49858;48.956;9.076;2023-01-23T00:51:15;99977.31;;;2.65;100.00
63715;BME280;49858;48.956;9.076;2023-01-23T00:53:43;99978.38;;;2.79;100.00
63715;BME280;49858;48.956;9.076;2023-01-23T00:56:11;99974.03;;;2.48;100.00
63715;BME280;49858;48.956;9.076;2023-01-23T00:58:39;99984.09;;;2.47;100.00
63715;BME280;49858;48.956;9.076;2023-01-23T01:01:11;99981.38;;;2.52;100.00
63715;BME280;49858;48.956;9.076;2023-01-23T01:03:39;99982.19;;;2.58;100.00
63715;BME280;49858;48.956;9.076;2023-01-23T01:06:09;99979.44;;;3.04;100.00
63715;BME280;49858;48.956;9.076;2023-01-23T01:08:37;99993.59;;;2.40;100.00
63715;BME280;49858;48.956;9.076;2023-01-23T01:11:05;99989.69;;;1.79;100.00
63715;BME280;49858;48.956;9.076;2023-01-23T01:13:34;99995.19;;;2.20;100.00
63715;BME280;49858;48.956;9.076;2023-01-23T01:16:02;99991.88;;;1.93;100.00
63715;BME280;49858;48.956;9.076;2023-01-23T01:18:31;99996.00;;;2.16;100.00
63715;BME280;49858;48.956;9.076;2023-01-23T01:21:04;100001.44;;;2.21;100.00
63715;BME280;49858;48.956;9.076;2023-01-23T01:23:35;99998.19;;;2.09;100.00
63715;BME280;49858;48.956;9.076;2023-01-23T01:26:03;99995.78;;;2.58;100.00
63715;BME280;49858;48.956;9.076;2023-01-23T01:28:33;100000.41;;;2.37;100.00
63715;BME280;49858;48.956;9.076;2023-01-23T01:31:05;100009.63;;;2.46;100.00
63715;BME280;49858;48.956;9.076;2023-01-23T01:33:34;100004.19;;;2.31;100.00
63715;BME280;49858;48.956;9.076;2023-01-23T01:36:01;100008.53;;;2.63;100.00
63715;BME280;49858;48.956;9.076;2023-01-23T01:38:29;100003.94;;;2.73;100.00
63715;BME280;49858;48.956;9.076;2023-01-23T01:40:58;100003.63;;;2.90;100.00
63715;BME280;49858;48.956;9.076;2023-01-23T01:43:27;100018.31;;;2.33;100.00
63715;BME280;49858;48.956;9.076;2023-01-23T01:46:07;100009.38;;;2.84;100.00
63715;BME280;49858;48.956;9.076;2023-01-23T01:48:39;100008.25;;;2.54;100.00
63715;BME280;49858;48.956;9.076;2023-01-23T01:51:12;100017.22;;;2.39;100.00
63715;BME280;49858;48.956;9.076;2023-01-23T01:53:44;100026.94;;;1.99;100.00
63715;BME280;49858;48.956;9.076;2023-01-23T01:56:15;100030.72;;;1.98;100.00
63715;BME280;49858;48.956;9.076;2023-01-23T01:58:46;100034.25;;;1.94;100.00
63715;BME280;49858;48.956;9.076;2023-01-23T02:01:16;100030.53;;;1.52;100.00
63715;BME280;49858;48.956;9.076;2023-01-23T02:03:44;100036.94;;;1.84;100.00
63715;BME280;49858;48.956;9.076;2023-01-23T02:06:12;100033.63;;;1.76;100.00
63715;BME280;49858;48.956;9.076;2023-01-23T02:08:46;100038.88;;;2.03;100.00
63715;BME280;49858;48.956;9.076;2023-01-23T02:11:16;100036.47;;;2.07;100.00
63715;BME280;49858;48.956;9.076;2023-01-23T02:13:44;100034.31;;;2.40;100.00
63715;BME280;49858;48.956;9.076;2023-01-23T02:16:13;100021.84;;;2.39;100.00
63715;BME280;49858;48.956;9.076;2023-01-23T02:18:43;100027.78;;;2.20;100.00
63715;BME280;49858;48.956;9.076;2023-01-23T02:21:16;100032.69;;;2.23;100.00
63715;BME280;49858;48.956;9.076;2023-01-23T02:23:55;100032.88;;;1.91;100.00
63715;BME280;49858;48.956;9.076;2023-01-23T02:26:30;100035.06;;;1.94;100.00
63715;BME280;49858;48.956;9.076;2023-01-23T02:29:03;100038.63;;;2.10;100.00
63715;BME280;49858;48.956;9.076;2023-01-23T02:31:39;100027.47;;;2.07;100.00
63715;BME280;49858;48.956;9.076;2023-01-23T02:34:11;100024.81;;;2.22;100.00
63715;BME280;49858;48.956;9.076;2023-01-23T02:36:43;100027.56;;;2.63;100.00
63715;BME280;49858;48.956;9.076;2023-01-23T02:39:15;100021.53;;;2.30;100.00
63715;BME280;49858;48.956;9.076;2023-01-23T02:41:50;100022.41;;;2.41;100.00
63715;BME280;49858;48.956;9.076;2023-01-23T02:44:22;100022.69;;;2.54;100.00
63715;BME280;49858;48.956;9.076;2023-01-23T02:46:57;100020.78;;;2.60;100.00
63715;BME280;49858;48.956;9.076;2023-01-23T02:49:26;100025.66;;;2.43;100.00
63715;BME280;49858;48.956;9.076;2023-01-23T02:51:55;100034.09;;;2.56;100.00
63715;BME280;49858;48.956;9.076;2023-01-23T02:54:23;100024.81;;;2.22;100.00
63715;BME280;49858;48.956;9.076;2023-01-23T02:56:53;100022.09;;;2.22;100.00
63715;BME280;49858;48.956;9.076;2023-01-23T02:59:23;100031.56;;;2.04;100.00
63715;BME280;49858;48.956;9.076;2023-01-23T03:02:08;100024.00;;;2.21;100.00
63715;BME280;49858;48.956;9.076;2023-01-23T03:04:36;100029.38;;;2.11;100.00
63715;BME280;49858;48.956;9.076;2023-01-23T03:07:04;100020.75;;;2.35;100.00
63715;BME280;49858;48.956;9.076;2023-01-23T03:09:32;100023.50;;;2.75;100.00
63715;BME280;49858;48.956;9.076;2023-01-23T03:12:01;100027.03;;;2.50;100.00
63715;BME280;49858;48.956;9.076;2023-01-23T03:14:29;100025.13;;;2.71;100.00
63715;BME280;49858;48.956;9.076;2023-01-23T03:16:57;100029.97;;;2.39;100.00
63715;BME280;49858;48.956;9.076;2023-01-23T03:19:30;100033.25;;;2.36;100.00
63715;BME280;49858;48.956;9.076;2023-01-23T03:21:58;100025.13;;;2.66;100.00
63715;BME280;49858;48.956;9.076;2023-01-23T03:24:26;100018.06;;;2.70;100.00
63715;BME280;49858;48.956;9.076;2023-01-23T03:26:53;100023.22;;;2.67;100.00
63715;BME280;49858;48.956;9.076;2023-01-23T03:29:25;100030.03;;;2.69;100.00
63715;BME280;49858;48.956;9.076;2023-01-23T03:32:13;100032.47;;;2.66;100.00
63715;BME280;49858;48.956;9.076;2023-01-23T03:34:43;100032.16;;;2.77;100.00
63715;BME280;49858;48.956;9.076;2023-01-23T03:37:11;100031.13;;;2.68;100.00
63715;BME280;49858;48.956;9.076;2023-01-23T03:39:43;100025.41;;;2.75;100.00
63715;BME280;49858;48.956;9.076;2023-01-23T03:42:32;100028.94;;;2.55;100.00
63715;BME280;49858;48.956;9.076;2023-01-23T03:45:04;100028.13;;;2.65;100.00
63715;BME280;49858;48.956;9.076;2023-01-23T03:47:34;100028.94;;;2.55;100.00
63715;BME280;49858;48.956;9.076;2023-01-23T03:50:04;100025.13;;;2.56;100.00
63715;BME280;49858;48.956;9.076;2023-01-23T03:52:36;100023.78;;;2.64;100.00
63715;BME280;49858;48.956;9.076;2023-01-23T03:55:05;100024.56;;;2.49;100.00
63715;BME280;49858;48.956;9.076;2023-01-23T03:57:34;100026.75;;;2.67;100.00
63715;BME280;49858;48.956;9.076;2023-01-23T04:00:24;100022.94;;;2.94;100.00
63715;BME280;49858;48.956;9.076;2023-01-23T04:02:57;100025.13;;;2.51;100.00
63715;BME280;49858;48.956;9.076;2023-01-23T04:05:26;100021.03;;;2.94;100.00
63715;BME280;49858;48.956;9.076;2023-01-23T04:07:54;100017.50;;;2.94;100.00
63715;BME280;49858;48.956;9.076;2023-01-23T04:10:22;100016.13;;;3.06;100.00
63715;BME280;49858;48.956;9.076;2023-01-23T04:12:53;100021.88;;;2.69;100.00
63715;BME280;49858;48.956;9.076;2023-01-23T04:15:21;100026.75;;;2.77;100.00
63715;BME280;49858;48.956;9.076;2023-01-23T04:17:53;100023.44;;;2.14;100.00
63715;BME280;49858;48.956;9.076;2023-01-23T04:20:23;100022.34;;;2.25;100.00
63715;BME280;49858;48.956;9.076;2023-01-23T04:22:52;100023.50;;;2.70;100.00
63715;BME280;49858;48.956;9.076;2023-01-23T04:25:20;100038.97;;;2.85;100.00
63715;BME280;49858;48.956;9.076;2023-01-23T04:27:48;100049.31;;;2.83;100.00
63715;BME280;49858;48.956;9.076;2023-01-23T04:30:16;100047.69;;;2.97;100.00
63715;BME280;49858;48.956;9.076;2023-01-23T04:32:45;100048.22;;;2.99;100.00
63715;BME280;49858;48.956;9.076;2023-01-23T04:35:17;100058.81;;;2.45;100.00
63715;BME280;49858;48.956;9.076;2023-01-23T04:37:45;100059.88;;;2.49;100.00
63715;BME280;49858;48.956;9.076;2023-01-23T04:40:13;100066.34;;;2.27;100.00
63715;BME280;49858;48.956;9.076;2023-01-23T04:42:50;100071.03;;;2.68;100.00
63715;BME280;49858;48.956;9.076;2023-01-23T04:45:38;100068.59;;;2.81;100.00
63715;BME280;49858;48.956;9.076;2023-01-23T04:48:16;100063.16;;;3.17;100.00
63715;BME280;49858;48.956;9.076;2023-01-23T04:50:46;100071.03;;;2.58;100.00
63715;BME280;49858;48.956;9.076;2023-01-23T04:53:14;100071.88;;;2.78;100.00
63715;BME280;49858;48.956;9.076;2023-01-23T04:55:46;100066.13;;;3.05;100.00
63715;BME280;49858;48.956;9.076;2023-01-23T04:58:15;100065.34;;;3.20;100.00
63715;BME280;49858;48.956;9.076;2023-01-23T05:00:43;100072.38;;;3.21;100.00
63715;BME280;49858;48.956;9.076;2023-01-23T05:03:12;100073.50;;;2.64;100.00
63715;BME280;49858;48.956;9.076;2023-01-23T05:05:43;100078.09;;;2.94;100.00
63715;BME280;49858;48.956;9.076;2023-01-23T05:08:13;100072.66;;;2.59;100.00
63715;BME280;49858;48.956;9.076;2023-01-23T05:10:48;100078.56;;;2.35;100.00
63715;BME280;49858;48.956;9.076;2023-01-23T05:13:17;100081.63;;;2.95;100.00
63715;BME280;49858;48.956;9.076;2023-01-23T05:15:46;100072.97;;;2.88;100.00
63715;BME280;49858;48.956;9.076;2023-01-23T05:18:14;100072.13;;;2.82;100.00
63715;BME280;49858;48.956;9.076;2023-01-23T05:20:43;100073.44;;;2.34;100.00
63715;BME280;49858;48.956;9.076;2023-01-23T05:23:11;100079.16;;;2.42;100.00
63715;BME280;49858;48.956;9.076;2023-01-23T05:25:46;100072.88;;;2.21;100.00
63715;BME280;49858;48.956;9.076;2023-01-23T05:28:14;100080.28;;;2.82;100.00
63715;BME280;49858;48.956;9.076;2023-01-23T05:30:49;100080.84;;;2.89;100.00
63715;BME280;49858;48.956;9.076;2023-01-23T05:33:24;100079.47;;;2.81;100.00
63715;BME280;49858;48.956;9.076;2023-01-23T05:35:52;100081.34;;;2.91;100.00
63715;BME280;49858;48.956;9.076;2023-01-23T05:38:20;100086.25;;;3.04;100.00
63715;BME280;49858;48.956;9.076;2023-01-23T05:40:49;100086.22;;;2.59;100.00
63715;BME280;49858;48.956;9.076;2023-01-23T05:43:43;100078.84;;;2.28;100.00
63715;BME280;49858;48.956;9.076;2023-01-23T05:46:25;100079.47;;;2.71;100.00
63715;BME280;49858;48.956;9.076;2023-01-23T05:48:54;100076.47;;;2.73;100.00
63715;BME280;49858;48.956;9.076;2023-01-23T05:51:24;100070.66;;;2.13;100.00
63715;BME280;49858;48.956;9.076;2023-01-23T05:53:58;100073.50;;;2.64;100.00
63715;BME280;49858;48.956;9.076;2023-01-23T05:56:28;100070.22;;;2.62;100.00
63715;BME280;49858;48.956;9.076;2023-01-23T05:59:15;100074.72;;;2.16;100.00
63715;BME280;49858;48.956;9.076;2023-01-23T06:01:55;100083.59;;;1.91;100.00
63715;BME280;49858;48.956;9.076;2023-01-23T06:04:41;100076.91;;;2.14;100.00
63715;BME280;49858;48.956;9.076;2023-01-23T06:07:22;100079.09;;;2.22;100.00
63715;BME280;49858;48.956;9.076;2023-01-23T06:09:53;100080.53;;;2.50;100.00
63715;BME280;49858;48.956;9.076;2023-01-23T06:12:22;100083.56;;;2.89;100.00
63715;BME280;49858;48.956;9.076;2023-01-23T06:14:53;100078.13;;;2.79;100.00
63715;BME280;49858;48.956;9.076;2023-01-23T06:17:21;100089.78;;;3.00;100.00
63715;BME280;49858;48.956;9.076;2023-01-23T06:19:50;100091.69;;;3.04;100.00
63715;BME280;49858;48.956;9.076;2023-01-23T06:22:17;100093.59;;;3.19;100.00
63715;BME280;49858;48.956;9.076;2023-01-23T06:24:59;100098.47;;;2.61;100.00
63715;BME280;49858;48.956;9.076;2023-01-23T06:27:28;100103.13;;;3.01;100.00
63715;BME280;49858;48.956;9.076;2023-01-23T06:29:57;100112.84;;;2.56;100.00
63715;BME280;49858;48.956;9.076;2023-01-23T06:32:25;100110.44;;;3.01;100.00
63715;BME280;49858;48.956;9.076;2023-01-23T06:34:53;100113.16;;;2.80;100.00
63715;BME280;49858;48.956;9.076;2023-01-23T06:37:21;100118.63;;;3.11;100.00
63715;BME280;49858;48.956;9.076;2023-01-23T06:39:48;100115.34;;;2.78;100.00
63715;BME280;49858;48.956;9.076;2023-01-23T06:42:17;100121.50;;;2.43;100.00
63715;BME280;49858;48.956;9.076;2023-01-23T06:44:48;100123.44;;;2.53;100.00
63715;BME280;49858;48.956;9.076;2023-01-23T06:47:18;100131.56;;;2.43;100.00
63715;BME280;49858;48.956;9.076;2023-01-23T06:49:53;100134.63;;;1.89;100.00
63715;BME280;49858;48.956;9.076;2023-01-23T06:52:22;100132.25;;;2.08;100.00
63715;BME280;49858;48.956;9.076;2023-01-23T06:54:50;100136.69;;;2.29;100.00
63715;BME280;49858;48.956;9.076;2023-01-23T06:57:19;100145.84;;;1.60;100.00
63715;BME280;49858;48.956;9.076;2023-01-23T06:59:50;100149.53;;;1.91;100.00
63715;BME280;49858;48.956;9.076;2023-01-23T07:02:19;100144.13;;;1.91;100.00
63715;BME280;49858;48.956;9.076;2023-01-23T07:04:50;100160.44;;;2.01;100.00
63715;BME280;49858;48.956;9.076;2023-01-23T07:07:18;100159.94;;;2.04;100.00
63715;BME280;49858;48.956;9.076;2023-01-23T07:09:48;100156.25;;;2.36;100.00
63715;BME280;49858;48.956;9.076;2023-01-23T07:12:22;100159.75;;;2.21;100.00
63715;BME280;49858;48.956;9.076;2023-01-23T07:14:51;100168.03;;;1.99;100.00
63715;BME280;49858;48.956;9.076;2023-01-23T07:17:28;100179.63;;;1.85;100.00
63715;BME280;49858;48.956;9.076;2023-01-23T07:19:56;100175.09;;;2.00;100.00
63715;BME280;49858;48.956;9.076;2023-01-23T07:22:27;100174.25;;;1.90;100.00
63715;BME280;49858;48.956;9.076;2023-01-23T07:24:55;100170.59;;;2.21;100.00
63715;BME280;49858;48.956;9.076;2023-01-23T07:27:23;100182.47;;;2.10;100.00
63715;BME280;49858;48.956;9.076;2023-01-23T07:29:55;100188.38;;;1.97;100.00
63715;BME280;49858;48.956;9.076;2023-01-23T07:32:23;100190.13;;;2.18;100.00
63715;BME280;49858;48.956;9.076;2023-01-23T07:34:51;100191.56;;;1.84;100.00
63715;BME280;49858;48.956;9.076;2023-01-23T07:37:19;100189.25;;;2.08;100.00
63715;BME280;49858;48.956;9.076;2023-01-23T07:39:49;100195.25;;;2.15;100.00
63715;BME280;49858;48.956;9.076;2023-01-23T07:42:19;100184.22;;;2.37;100.00
63715;BME280;49858;48.956;9.076;2023-01-23T07:44:46;100186.56;;;2.13;100.00
63715;BME280;49858;48.956;9.076;2023-01-23T07:47:16;100195.38;;;1.88;100.00
63715;BME280;49858;48.956;9.076;2023-01-23T07:49:44;100200.38;;;2.06;100.00
63715;BME280;49858;48.956;9.076;2023-01-23T07:52:12;100191.50;;;1.78;100.00
63715;BME280;49858;48.956;9.076;2023-01-23T07:54:40;100200.38;;;1.64;100.00
63715;BME280;49858;48.956;9.076;2023-01-23T07:57:08;100197.50;;;1.81;100.00
63715;BME280;49858;48.956;9.076;2023-01-23T07:59:35;100194.28;;;1.84;100.00
63715;BME280;49858;48.956;9.076;2023-01-23T08:02:03;100189.97;;;2.40;100.00
63715;BME280;49858;48.956;9.076;2023-01-23T08:04:32;100186.63;;;2.23;100.00
63715;BME280;49858;48.956;9.076;2023-01-23T08:07:00;100191.28;;;1.80;100.00
63715;BME280;49858;48.956;9.076;2023-01-23T08:09:28;100192.63;;;1.83;100.00
63715;BME280;49858;48.956;9.076;2023-01-23T08:11:56;100190.88;;;2.03;100.00
63715;BME280;49858;48.956;9.076;2023-01-23T08:14:23;100199.34;;;2.12;100.00
63715;BME280;49858;48.956;9.076;2023-01-23T08:16:51;100186.31;;;2.14;100.00
63715;BME280;49858;48.956;9.076;2023-01-23T08:19:19;100181.94;;;2.08;100.00
63715;BME280;49858;48.956;9.076;2023-01-23T08:21:48;100192.66;;;1.88;100.00
63715;BME280;49858;48.956;9.076;2023-01-23T08:24:16;100184.81;;;1.91;100.00
63715;BME280;49858;48.956;9.076;2023-01-23T08:26:44;100185.75;;;2.12;100.00
63715;BME280;49858;48.956;9.076;2023-01-23T08:29:12;100188.38;;;1.97;100.00
63715;BME280;49858;48.956;9.076;2023-01-23T08:31:40;100185.25;;;1.73;100.00
63715;BME280;49858;48.956;9.076;2023-01-23T08:34:10;100200.88;;;1.98;100.00
63715;BME280;49858;48.956;9.076;2023-01-23T08:36:38;100196.00;;;2.00;100.00
63715;BME280;49858;48.956;9.076;2023-01-23T08:39:07;100188.34;;;1.92;100.00
63715;BME280;49858;48.956;9.076;2023-01-23T08:41:34;100181.34;;;2.01;100.00
63715;BME280;49858;48.956;9.076;2023-01-23T08:44:02;100189.19;;;2.50;100.00
63715;BME280;49858;48.956;9.076;2023-01-23T08:46:30;100175.53;;;2.35;100.00
63715;BME280;49858;48.956;9.076;2023-01-23T08:48:58;100184.31;;;1.99;100.00
63715;BME280;49858;48.956;9.076;2023-01-23T08:51:26;100188.34;;;1.92;100.00
63715;BME280;49858;48.956;9.076;2023-01-23T08:53:53;100179.03;;;2.30;100.00
63715;BME280;49858;48.956;9.076;2023-01-23T08:56:23;100188.72;;;2.11;100.00
63715;BME280;49858;48.956;9.076;2023-01-23T08:58:51;100188.53;;;2.22;100.00
63715;BME280;49858;48.956;9.076;2023-01-23T09:01:21;100180.72;;;2.36;100.00
63715;BME280;49858;48.956;9.076;2023-01-23T09:03:49;100182.25;;;2.17;100.00
63715;BME280;49858;48.956;9.076;2023-01-23T09:06:19;100177.19;;;2.41;100.00
63715;BME280;49858;48.956;9.076;2023-01-23T09:08:47;100174.16;;;2.32;100.00
63715;BME280;49858;48.956;9.076;2023-01-23T09:11:16;100186.97;;;2.47;100.00
63715;BME280;49858;48.956;9.076;2023-01-23T09:13:46;100184.22;;;2.37;100.00
63715;BME280;49858;48.956;9.076;2023-01-23T09:16:14;100195.66;;;2.44;100.00
63715;BME280;49858;48.956;9.076;2023-01-23T09:18:42;100192.72;;;2.61;100.00
63715;BME280;49858;48.956;9.076;2023-01-23T09:21:12;100184.63;;;2.81;100.00
63715;BME280;49858;48.956;9.076;2023-01-23T09:23:41;100184.59;;;2.66;100.00
63715;BME280;49858;48.956;9.076;2023-01-23T09:26:10;100184.41;;;3.08;100.00
63715;BME280;49858;48.956;9.076;2023-01-23T09:28:39;100193.84;;;2.75;100.00
63715;BME280;49858;48.956;9.076;2023-01-23T09:31:11;100187.25;;;2.45;100.00
63715;BME280;49858;48.956;9.076;2023-01-23T09:33:40;100187.63;;;2.79;100.00
63715;BME280;49858;48.956;9.076;2023-01-23T09:36:08;100194.97;;;2.79;100.00
63715;BME280;49858;48.956;9.076;2023-01-23T09:38:36;100188.16;;;2.76;100.00
63715;BME280;49858;48.956;9.076;2023-01-23T09:41:10;100200.63;;;2.67;100.00
63715;BME280;49858;48.956;9.076;2023-01-23T09:43:46;100191.16;;;2.75;100.00
63715;BME280;49858;48.956;9.076;2023-01-23T09:46:23;100191.91;;;2.60;100.00
63715;BME280;49858;48.956;9.076;2023-01-23T09:48:58;100189.19;;;2.50;100.00
63715;BME280;49858;48.956;9.076;2023-01-23T09:51:43;100179.59;;;2.32;100.00
63715;BME280;49858;48.956;9.076;2023-01-23T09:54:18;100182.19;;;2.79;100.00
63715;BME280;49858;48.956;9.076;2023-01-23T09:56:49;100189.81;;;2.83;100.00
63715;BME280;49858;48.956;9.076;2023-01-23T09:59:27;100200.69;;;2.93;100.00
63715;BME280;49858;48.956;9.076;2023-01-23T10:01:59;100196.22;;;2.46;100.00
63715;BME280;49858;48.956;9.076;2023-01-23T10:04:30;100193.34;;;2.78;100.00
63715;BME280;49858;48.956;9.076;2023-01-23T10:07:17;100181.28;;;2.48;100.00
63715;BME280;49858;48.956;9.076;2023-01-23T10:10:00;100187.38;;;2.13;100.00
63715;BME280;49858;48.956;9.076;2023-01-23T10:12:40;100191.66;;;2.62;100.00
63715;BME280;49858;48.956;9.076;2023-01-23T10:15:19;100201.69;;;2.61;100.00
63715;BME280;49858;48.956;9.076;2023-01-23T10:18:01;100197.50;;;2.28;100.00
63715;BME280;49858;48.956;9.076;2023-01-23T10:20:44;100194.63;;;2.55;100.00
63715;BME280;49858;48.956;9.076;2023-01-23T10:23:30;100189.13;;;2.40;100.00
63715;BME280;49858;48.956;9.076;2023-01-23T10:26:03;100194.63;;;2.60;100.00
63715;BME280;49858;48.956;9.076;2023-01-23T10:28:33;100194.63;;;2.60;100.00
63715;BME280;49858;48.956;9.076;2023-01-23T10:31:07;100195.25;;;2.88;100.00
63715;BME280;49858;48.956;9.076;2023-01-23T10:33:45;100200.31;;;2.59;100.00
63715;BME280;49858;48.956;9.076;2023-01-23T10:36:19;100205.03;;;2.84;100.00
63715;BME280;49858;48.956;9.076;2023-01-23T10:38:56;100208.50;;;2.64;100.00
63715;BME280;49858;48.956;9.076;2023-01-23T10:41:28;100208.13;;;2.40;100.00
63715;BME280;49858;48.956;9.076;2023-01-23T10:43:55;100193.53;;;2.56;100.00
63715;BME280;49858;48.956;9.076;2023-01-23T10:46:28;100193.06;;;2.79;100.00
63715;BME280;49858;48.956;9.076;2023-01-23T10:49:00;100196.28;;;2.71;100.00
63715;BME280;49858;48.956;9.076;2023-01-23T10:51:34;100193.66;;;3.17;100.00
63715;BME280;49858;48.956;9.076;2023-01-23T10:54:13;100194.75;;;3.37;100.00
63715;BME280;49858;48.956;9.076;2023-01-23T10:57:01;100186.03;;;3.14;100.00
63715;BME280;49858;48.956;9.076;2023-01-23T10:59:32;100186.84;;;3.15;100.00
63715;BME280;49858;48.956;9.076;2023-01-23T11:02:17;100195.28;;;3.33;100.00
63715;BME280;49858;48.956;9.076;2023-01-23T11:04:49;100187.97;;;3.34;100.00
63715;BME280;49858;48.956;9.076;2023-01-23T11:07:24;100196.94;;;3.29;100.00
63715;BME280;49858;48.956;9.076;2023-01-23T11:09:55;100187.69;;;3.25;100.00
63715;BME280;49858;48.956;9.076;2023-01-23T11:12:26;100185.44;;;3.89;100.00
63715;BME280;49858;48.956;9.076;2023-01-23T11:15:15;100185.75;;;3.82;100.00
63715;BME280;49858;48.956;9.076;2023-01-23T11:17:47;100180.00;;;3.94;100.00
63715;BME280;49858;48.956;9.076;2023-01-23T11:20:25;100187.16;;;3.49;100.00
63715;BME280;49858;48.956;9.076;2023-01-23T11:23:03;100169.94;;;3.84;100.00
63715;BME280;49858;48.956;9.076;2023-01-23T11:25:40;100177.03;;;3.75;100.00
63715;BME280;49858;48.956;9.076;2023-01-23T11:28:19;100168.59;;;3.81;100.00
63715;BME280;49858;48.956;9.076;2023-01-23T11:30:52;100164.75;;;3.93;100.00
63715;BME280;49858;48.956;9.076;2023-01-23T11:33:42;100159.03;;;3.94;100.00
63715;BME280;49858;48.956;9.076;2023-01-23T11:36:30;100149.97;;;4.19;100.00
63715;BME280;49858;48.956;9.076;2023-01-23T11:39:04;100146.78;;;3.97;100.00
63715;BME280;49858;48.956;9.076;2023-01-23T11:41:43;100150.81;;;4.09;100.00
63715;BME280;49858;48.956;9.076;2023-01-23T11:44:17;100147.25;;;4.69;100.00
63715;BME280;49858;48.956;9.076;2023-01-23T11:47:15;100131.81;;;4.54;100.00
63715;BME280;49858;48.956;9.076;2023-01-23T11:50:01;100129.34;;;4.97;100.00
63715;BME280;49858;48.956;9.076;2023-01-23T11:52:44;100137.53;;;4.57;100.00
63715;BME280;49858;48.956;9.076;2023-01-23T11:55:40;100128.84;;;4.50;100.00
63715;BME280;49858;48.956;9.076;2023-01-23T11:58:21;100129.09;;;4.54;100.00
63715;BME280;49858;48.956;9.076;2023-01-23T12:00:59;100129.06;;;4.98;100.00
63715;BME280;49858;48.956;9.076;2023-01-23T12:03:52;100125.47;;;5.03;100.00
63715;BME280;49858;48.956;9.076;2023-01-23T12:06:35;100126.78;;;4.76;100.00
63715;BME280;49858;48.956;9.076;2023-01-23T12:09:09;100126.53;;;5.07;100.00
63715;BME280;49858;48.956;9.076;2023-01-23T12:11:49;100123.81;;;5.07;100.00
63715;BME280;49858;48.956;9.076;2023-01-23T12:14:24;100122.91;;;4.43;100.00
63715;BME280;49858;48.956;9.076;2023-01-23T12:17:01;100118.50;;;3.88;100.00
63715;BME280;49858;48.956;9.076;2023-01-23T12:19:48;100098.84;;;4.50;100.00
63715;BME280;49858;48.956;9.076;2023-01-23T12:22:26;100105.25;;;4.30;100.00
63715;BME280;49858;48.956;9.076;2023-01-23T12:25:09;100113.84;;;3.88;100.00
63715;BME280;49858;48.956;9.076;2023-01-23T12:27:42;100114.97;;;4.42;100.00
63715;BME280;49858;48.956;9.076;2023-01-23T12:30:27;100106.25;;;4.45;100.00
63715;BME280;49858;48.956;9.076;2023-01-23T12:33:06;100102.31;;;4.61;100.00
63715;BME280;49858;48.956;9.076;2023-01-23T12:35:48;100097.06;;;4.30;100.00
63715;BME280;49858;48.956;9.076;2023-01-23T12:38:24;100092.63;;;3.95;100.00
63715;BME280;49858;48.956;9.076;2023-01-23T12:41:07;100092.09;;;3.83;100.00
63715;BME280;49858;48.956;9.076;2023-01-23T12:43:40;100085.91;;;3.67;100.00
63715;BME280;49858;48.956;9.076;2023-01-23T12:46:16;100084.56;;;3.59;100.00
63715;BME280;49858;48.956;9.076;2023-01-23T12:48:48;100073.56;;;3.85;100.00
63715;BME280;49858;48.956;9.076;2023-01-23T12:51:21;100078.88;;;3.41;100.00
63715;BME280;49858;48.956;9.076;2023-01-23T12:53:52;100074.63;;;3.94;100.00
63715;BME280;49858;48.956;9.076;2023-01-23T12:56:26;100077.59;;;4.03;100.00
63715;BME280;49858;48.956;9.076;2023-01-23T12:59:04;100067.91;;;3.81;100.00
63715;BME280;49858;48.956;9.076;2023-01-23T13:01:49;100064.69;;;3.64;100.00
63715;BME280;49858;48.956;9.076;2023-01-23T13:04:31;100062.06;;;4.03;100.00
63715;BME280;49858;48.956;9.076;2023-01-23T13:07:08;100053.47;;;3.76;100.00
63715;BME280;49858;48.956;9.076;2023-01-23T13:09:48;100054.22;;;3.97;100.00
63715;BME280;49858;48.956;9.076;2023-01-23T13:12:20;100047.78;;;3.72;100.00
63715;BME280;49858;48.956;9.076;2023-01-23T13:14:50;100060.31;;;4.23;100.00
63715;BME280;49858;48.956;9.076;2023-01-23T13:17:40;100054.72;;;4.53;100.00